Tracy-Clark, Nevada
Current Conditions -  °F | °C
As of 12:55 PM on Monday 24 Nov 2014 (Local Time) from KRNO Reporting Station
Broken Clouds Broken Clouds  
Wind Chill: 49°   Ceiling: 25000
Heat Index: 49°   Visibility: 10mi
Dew Point: 18°   Wind: 0mph
Humidity: 29%   Direction: NA
Pressure: 30.44"   Gusts: NA
Location:  39.5403°N, 119.672°W
Report Text: KRNO 242055Z 00000KT 10SM FEW190 BKN250 BKN300 09/M08 A3044 RMK AO2 SLP309 T00941078 56020
Loading
Personal Weather Stations






























Interactive Weather Map New forecast layout! Learn more

10-Day Weather Forecast

Advertisements
Track Severe Weather on mobile